Time;durP1;ratioP1;P1;durP2;ratioP2;P2;SDS_P1;SDS_P2;PMS_P1;PMS_P2;Temp;Humidity;BMP_temperature;BMP_pressure;BME280_temperature;BME280_humidity;BME280_pressure;Samples;Min_cycle;Max_cycle;Signal;HPM_P1;HPM_P2
2022/09/20 00:02:49;;;;;;;;;;;10.00;99.90;;;;;;12464227;28;19967;-84
2022/09/20 00:08:51;;;;;;;;;;;10.10;99.90;;;;;;12463031;28;19933;-84
2022/09/20 00:14:52;;;;;;;;;;;9.90;99.90;;;;;;12471308;28;19932;-85
2022/09/20 00:20:54;;;;;;;;;;;9.90;99.90;;;;;;12487927;28;19932;-84
2022/09/20 00:26:56;;;;;;;;;;;9.80;99.90;;;;;;12482441;28;19929;-85
2022/09/20 00:32:57;;;;;;;;;;;9.80;99.90;;;;;;12461297;28;20300;-85
2022/09/20 00:39:00;;;;;;;;;;;9.80;99.90;;;;;;12465881;28;19932;-85
2022/09/20 00:45:05;;;;;;;;;;;9.70;99.90;;;;;;12458824;28;19940;-85
2022/09/20 00:51:09;;;;;;;;;;;9.80;99.90;;;;;;12480641;28;19934;-85
2022/09/20 00:57:11;;;;;;;;;;;9.60;99.90;;;;;;12477734;28;19929;-85
2022/09/20 01:03:14;;;;;;;;;;;9.60;99.90;;;;;;12473438;28;19925;-85
2022/09/20 01:09:15;;;;;;;;;;;9.60;99.90;;;;;;12492846;28;19932;-84
2022/09/20 01:15:17;;;;;;;;;;;9.60;99.90;;;;;;12480968;28;19933;-85
2022/09/20 01:21:19;;;;;;;;;;;9.60;99.90;;;;;;12469978;28;20299;-85
2022/09/20 01:27:39;;;;;;;;;;;9.60;99.90;;;;;;12483253;28;19925;-85
2022/09/20 01:33:47;;;;;;;;;;;9.60;99.90;;;;;;12479825;28;19951;-85
2022/09/20 01:40:11;;;;;;;;;;;9.60;99.90;;;;;;12477995;28;19933;-85
2022/09/20 01:46:30;;;;;;;;;;;9.70;99.90;;;;;;12467142;28;19975;-84
2022/09/20 01:52:32;;;;;;;;;;;9.70;99.90;;;;;;12464818;28;19933;-84
2022/09/20 01:58:52;;;;;;;;;;;9.70;99.90;;;;;;12481935;28;20389;-84
2022/09/20 02:05:14;;;;;;;;;;;9.70;99.90;;;;;;12459523;28;19933;-84
2022/09/20 02:11:19;;;;;;;;;;;9.70;99.90;;;;;;12477413;28;19925;-84
2022/09/20 02:17:24;;;;;;;;;;;9.70;99.90;;;;;;12464859;28;19949;-84
2022/09/20 02:23:31;;;;;;;;;;;9.70;99.90;;;;;;12475577;28;19925;-85
2022/09/20 02:29:36;;;;;;;;;;;9.70;99.90;;;;;;12471242;28;19926;-84
2022/09/20 02:35:44;;;;;;;;;;;9.70;99.90;;;;;;12466454;28;20297;-85
2022/09/20 02:41:51;;;;;;;;;;;9.70;99.90;;;;;;12505043;28;19940;-85
2022/09/20 02:47:55;;;;;;;;;;;9.70;99.90;;;;;;12490821;28;19926;-84
2022/09/20 02:54:02;;;;;;;;;;;9.80;99.90;;;;;;12470812;28;19926;-84
2022/09/20 03:00:06;;;;;;;;;;;9.70;99.90;;;;;;12479327;28;19929;-85
2022/09/20 03:06:15;;;;;;;;;;;9.90;99.90;;;;;;12468866;28;19938;-85
2022/09/20 03:12:29;;;;;;;;;;;9.80;99.90;;;;;;12471864;28;19931;-85
2022/09/20 03:18:33;;;;;;;;;;;9.80;99.90;;;;;;12480920;28;19925;-85
2022/09/20 03:24:41;;;;;;;;;;;9.80;99.90;;;;;;12461936;28;19926;-85
2022/09/20 03:31:01;;;;;;;;;;;9.90;99.90;;;;;;12489369;28;19932;-85
2022/09/20 03:37:21;;;;;;;;;;;9.90;99.90;;;;;;12468782;28;19952;-84
2022/09/20 03:43:35;;;;;;;;;;;9.80;99.90;;;;;;12475512;28;19925;-85
2022/09/20 03:49:44;;;;;;;;;;;9.80;99.90;;;;;;12473637;28;19952;-85
2022/09/20 03:56:05;;;;;;;;;;;9.70;99.90;;;;;;12459342;28;19929;-85
2022/09/20 04:02:19;;;;;;;;;;;9.60;99.90;;;;;;12452141;28;20293;-85
2022/09/20 04:08:26;;;;;;;;;;;9.50;99.90;;;;;;12474999;28;19948;-85
2022/09/20 04:14:51;;;;;;;;;;;9.40;99.90;;;;;;12469226;28;19937;-85
2022/09/20 04:20:53;;;;;;;;;;;9.40;99.90;;;;;;12474215;28;19926;-85
2022/09/20 04:27:01;;;;;;;;;;;9.40;99.90;;;;;;12480521;28;19936;-85
2022/09/20 04:33:06;;;;;;;;;;;9.40;99.90;;;;;;12465464;28;19926;-85
2022/09/20 04:39:15;;;;;;;;;;;9.40;99.90;;;;;;12456905;28;19926;-85
2022/09/20 04:45:29;;;;;;;;;;;9.40;99.90;;;;;;12468158;28;19925;-85
2022/09/20 04:51:43;;;;;;;;;;;9.40;99.90;;;;;;12466672;28;19963;-85
2022/09/20 04:58:20;;;;;;;;;;;9.40;99.90;;;;;;12474042;28;19929;-85
2022/09/20 05:04:40;;;;;;;;;;;9.40;99.90;;;;;;12394865;28;19925;-86
2022/09/20 05:10:51;;;;;;;;;;;9.50;99.90;;;;;;12482354;28;19932;-86
2022/09/20 05:16:59;;;;;;;;;;;9.50;99.90;;;;;;12481374;28;19930;-86
2022/09/20 05:23:33;;;;;;;;;;;9.50;99.90;;;;;;12465433;28;19940;-86
2022/09/20 05:29:34;;;;;;;;;;;9.50;99.90;;;;;;12428045;28;20396;-86
2022/09/20 05:35:42;;;;;;;;;;;9.50;99.90;;;;;;12471059;28;19925;-86
2022/09/20 05:41:46;;;;;;;;;;;9.50;99.90;;;;;;12476045;28;19933;-86
2022/09/20 05:47:58;;;;;;;;;;;9.50;99.90;;;;;;12483932;28;19933;-86
2022/09/20 05:54:06;;;;;;;;;;;9.60;99.90;;;;;;12508972;28;19909;-86
2022/09/20 06:00:13;;;;;;;;;;;9.70;99.90;;;;;;12543262;28;19989;-87
2022/09/20 06:06:25;;;;;;;;;;;9.80;99.90;;;;;;12528613;28;19925;-86
2022/09/20 06:12:53;;;;;;;;;;;9.90;99.90;;;;;;12517328;28;19932;-86
2022/09/20 06:18:58;;;;;;;;;;;10.00;99.90;;;;;;12562482;28;19965;-86
2022/09/20 06:25:08;;;;;;;;;;;10.00;99.90;;;;;;12530286;28;19940;-87
2022/09/20 06:31:10;;;;;;;;;;;10.20;99.90;;;;;;12526048;28;19929;-86
2022/09/20 06:43:51;;;;;;;;;;;10.40;99.90;;;;;;12485882;28;19936;-86
2022/09/20 06:49:53;;;;;;;;;;;10.40;99.90;;;;;;12477021;28;19925;-86
2022/09/20 06:55:54;;;;;;;;;;;10.40;99.90;;;;;;12474248;28;19937;-86
2022/09/20 07:01:56;;;;;;;;;;;10.30;99.90;;;;;;12468185;28;19932;-86
2022/09/20 07:07:59;;;;;;;;;;;10.40;99.90;;;;;;12489331;28;19933;-86
2022/09/20 07:14:00;;;;;;;;;;;10.40;99.90;;;;;;12467598;28;19939;-86
2022/09/20 07:20:02;;;;;;;;;;;10.30;99.90;;;;;;12472239;28;19925;-86
2022/09/20 07:26:04;;;;;;;;;;;10.40;99.90;;;;;;12474751;28;19933;-86
2022/09/20 07:32:06;;;;;;;;;;;10.40;99.90;;;;;;12480291;28;19929;-86
2022/09/20 07:38:09;;;;;;;;;;;10.40;99.90;;;;;;12475073;28;19928;-86
2022/09/20 07:44:20;;;;;;;;;;;10.40;99.90;;;;;;12487528;28;19925;-86
2022/09/20 07:50:22;;;;;;;;;;;10.50;99.90;;;;;;12474257;28;19926;-85
2022/09/20 07:56:23;;;;;;;;;;;10.40;99.90;;;;;;12492943;28;19925;-86
2022/09/20 08:02:25;;;;;;;;;;;10.50;99.90;;;;;;12455370;28;19933;-86
2022/09/20 08:08:28;;;;;;;;;;;10.60;99.90;;;;;;12471581;28;19932;-86
2022/09/20 08:14:29;;;;;;;;;;;10.60;99.90;;;;;;12475688;28;19925;-86
2022/09/20 08:20:33;;;;;;;;;;;10.60;99.90;;;;;;12459019;28;19925;-86
2022/09/20 08:26:35;;;;;;;;;;;10.80;99.90;;;;;;12461102;28;20292;-86
2022/09/20 08:32:37;;;;;;;;;;;10.80;99.90;;;;;;12480664;28;19933;-86
2022/09/20 08:38:39;;;;;;;;;;;11.10;99.90;;;;;;12456089;28;19932;-86
2022/09/20 08:45:21;;;;;;;;;;;11.50;99.90;;;;;;12462155;28;19932;-86
2022/09/20 08:51:37;;;;;;;;;;;11.80;99.90;;;;;;12466176;28;19926;-86
2022/09/20 08:57:38;;;;;;;;;;;11.80;99.90;;;;;;12473279;28;19929;-86
2022/09/20 09:03:41;;;;;;;;;;;11.50;99.90;;;;;;12465859;28;19925;-86
2022/09/20 09:09:43;;;;;;;;;;;11.40;99.90;;;;;;12471666;28;19925;-86
2022/09/20 09:15:48;;;;;;;;;;;11.70;99.90;;;;;;12469142;28;19929;-86
2022/09/20 09:21:49;;;;;;;;;;;12.50;99.90;;;;;;12476461;28;19936;-87
2022/09/20 09:27:56;;;;;;;;;;;12.50;99.90;;;;;;12470294;28;19929;-85
2022/09/20 09:33:57;;;;;;;;;;;12.10;99.90;;;;;;12477301;28;19933;-87
2022/09/20 09:40:15;;;;;;;;;;;12.20;99.90;;;;;;12469255;28;19940;-86
2022/09/20 09:46:20;;;;;;;;;;;12.30;99.90;;;;;;12459815;28;19983;-87
2022/09/20 09:52:25;;;;;;;;;;;12.80;99.90;;;;;;12457247;28;19929;-87
2022/09/20 09:58:39;;;;;;;;;;;12.90;99.90;;;;;;12463814;28;19925;-87
2022/09/20 10:04:55;;;;;;;;;;;12.90;99.90;;;;;;12459155;28;19925;-87
2022/09/20 10:11:18;;;;;;;;;;;12.90;99.90;;;;;;12459580;28;19929;-88
2022/09/20 10:17:39;;;;;;;;;;;13.00;99.90;;;;;;12464675;28;19926;-87
2022/09/20 10:23:48;;;;;;;;;;;12.90;99.90;;;;;;12456512;28;19932;-87
2022/09/20 10:30:15;;;;;;;;;;;12.90;99.90;;;;;;12469256;28;19965;-87
2022/09/20 10:36:23;;;;;;;;;;;13.10;99.90;;;;;;12451428;28;19929;-87
2022/09/20 10:49:22;;;;;;;;;;;14.00;99.90;;;;;;12480387;28;19980;-87
2022/09/20 10:55:24;;;;;;;;;;;13.90;99.90;;;;;;12481545;28;20373;-87
2022/09/20 11:01:31;;;;;;;;;;;13.90;99.90;;;;;;12480811;28;19936;-87
2022/09/20 11:07:52;;;;;;;;;;;13.70;99.90;;;;;;12469944;28;19933;-87
2022/09/20 11:14:18;;;;;;;;;;;13.90;99.90;;;;;;12481907;28;20384;-87
2022/09/20 11:20:22;;;;;;;;;;;14.00;99.90;;;;;;12470562;28;20349;-88
2022/09/20 11:26:30;;;;;;;;;;;14.60;99.90;;;;;;12481631;28;19933;-87
2022/09/20 11:32:41;;;;;;;;;;;15.20;99.90;;;;;;12472856;28;19936;-88
2022/09/20 11:38:47;;;;;;;;;;;15.50;99.90;;;;;;12466125;28;19926;-88
2022/09/20 11:44:54;;;;;;;;;;;15.60;99.90;;;;;;12462811;28;20694;-87
2022/09/20 11:50:55;;;;;;;;;;;15.90;99.90;;;;;;12459973;28;19926;-87
2022/09/20 11:56:58;;;;;;;;;;;16.20;99.90;;;;;;12474045;28;19932;-87
2022/09/20 12:03:02;;;;;;;;;;;16.20;99.90;;;;;;12461575;28;19936;-88
2022/09/20 12:09:06;;;;;;;;;;;16.30;99.90;;;;;;12481849;28;19936;-88
2022/09/20 12:15:29;;;;;;;;;;;15.50;99.90;;;;;;12470136;28;19937;-87
2022/09/20 12:21:50;;;;;;;;;;;15.90;99.90;;;;;;12457640;28;19926;-88
2022/09/20 12:27:55;;;;;;;;;;;16.10;99.90;;;;;;12469967;28;20407;-87
2022/09/20 12:34:22;;;;;;;;;;;16.00;99.90;;;;;;12459228;28;19940;-88
2022/09/20 12:40:24;;;;;;;;;;;16.40;99.90;;;;;;12461822;28;19933;-87
2022/09/20 12:46:29;;;;;;;;;;;16.80;99.90;;;;;;12473421;28;20379;-88
2022/09/20 12:52:49;;;;;;;;;;;16.80;99.90;;;;;;12458795;28;20313;-87
2022/09/20 12:58:52;;;;;;;;;;;16.50;99.90;;;;;;12466291;28;19973;-88
2022/09/20 13:04:54;;;;;;;;;;;15.90;99.90;;;;;;12457364;28;19930;-88
2022/09/20 13:10:59;;;;;;;;;;;15.20;99.90;;;;;;12464389;28;19925;-87
2022/09/20 13:17:19;;;;;;;;;;;15.20;99.90;;;;;;12467678;28;19929;-88
2022/09/20 13:23:25;;;;;;;;;;;15.90;99.90;;;;;;12468499;28;19926;-88
2022/09/20 13:29:36;;;;;;;;;;;16.40;99.90;;;;;;12467492;28;19929;-88
2022/09/20 13:35:39;;;;;;;;;;;16.70;99.90;;;;;;12467895;28;19933;-87
2022/09/20 13:41:41;;;;;;;;;;;16.70;99.90;;;;;;12455796;28;19925;-86
2022/09/20 13:47:46;;;;;;;;;;;15.90;99.90;;;;;;12473929;28;19926;-87
2022/09/20 13:53:48;;;;;;;;;;;14.70;99.90;;;;;;12448047;28;19933;-88
2022/09/20 13:59:50;;;;;;;;;;;13.50;99.90;;;;;;12457369;28;19936;-88
2022/09/20 14:05:53;;;;;;;;;;;12.80;99.90;;;;;;12465403;28;19936;-87
2022/09/20 14:11:55;;;;;;;;;;;12.70;99.90;;;;;;12460574;28;19944;-86
2022/09/20 14:17:57;;;;;;;;;;;12.50;99.90;;;;;;12466710;28;19929;-86
2022/09/20 14:24:03;;;;;;;;;;;12.50;99.90;;;;;;12475496;28;20010;-86
2022/09/20 14:30:06;;;;;;;;;;;12.70;99.90;;;;;;12471375;28;19925;-86
2022/09/20 14:36:14;;;;;;;;;;;12.60;99.90;;;;;;12465883;28;19983;-85
2022/09/20 14:42:21;;;;;;;;;;;12.80;99.90;;;;;;12468947;28;19926;-86
2022/09/20 14:48:23;;;;;;;;;;;12.80;99.90;;;;;;12463774;28;19932;-86
2022/09/20 14:54:24;;;;;;;;;;;12.90;99.90;;;;;;12461137;28;19926;-86
2022/09/20 15:00:28;;;;;;;;;;;12.90;99.90;;;;;;12472192;28;20629;-86
2022/09/20 15:06:30;;;;;;;;;;;12.90;99.90;;;;;;12465509;28;19933;-86
2022/09/20 15:12:31;;;;;;;;;;;13.30;99.90;;;;;;12463400;28;19925;-87
2022/09/20 15:18:39;;;;;;;;;;;13.80;99.90;;;;;;12480688;28;19925;-86
2022/09/20 15:24:41;;;;;;;;;;;14.00;99.90;;;;;;12460279;28;20274;-88
2022/09/20 15:30:44;;;;;;;;;;;14.20;99.90;;;;;;12475040;28;19940;-87
2022/09/20 15:36:45;;;;;;;;;;;14.40;99.90;;;;;;12465312;28;19936;-87
2022/09/20 15:42:47;;;;;;;;;;;14.10;99.90;;;;;;12465174;28;19925;-87
2022/09/20 15:48:49;;;;;;;;;;;13.80;99.90;;;;;;12468451;28;19925;-87
2022/09/20 15:54:51;;;;;;;;;;;13.40;99.90;;;;;;12464643;28;19929;-87
2022/09/20 16:00:54;;;;;;;;;;;13.00;99.90;;;;;;12458513;28;19925;-86
2022/09/20 16:06:55;;;;;;;;;;;12.90;99.90;;;;;;12470573;28;20003;-86
2022/09/20 16:12:57;;;;;;;;;;;12.70;99.90;;;;;;12464823;28;19995;-86
2022/09/20 16:19:18;;;;;;;;;;;12.70;99.90;;;;;;12469518;28;20391;-86
2022/09/20 16:25:20;;;;;;;;;;;12.90;99.90;;;;;;12467453;28;19936;-87
2022/09/20 16:31:25;;;;;;;;;;;12.80;99.90;;;;;;12473182;28;19925;-86
2022/09/20 16:37:31;;;;;;;;;;;12.60;99.90;;;;;;12457212;28;19932;-87
2022/09/20 16:43:35;;;;;;;;;;;12.80;99.90;;;;;;12459742;28;19932;-87
2022/09/20 16:49:39;;;;;;;;;;;12.70;99.90;;;;;;12463719;28;20114;-87
2022/09/20 16:55:44;;;;;;;;;;;12.80;99.90;;;;;;12474177;28;19925;-87
2022/09/20 17:01:47;;;;;;;;;;;12.90;99.90;;;;;;12460888;28;20389;-87
2022/09/20 17:07:49;;;;;;;;;;;12.70;99.90;;;;;;12457883;28;19926;-88
2022/09/20 17:13:51;;;;;;;;;;;12.70;99.90;;;;;;12467449;28;19929;-87
2022/09/20 17:19:54;;;;;;;;;;;12.60;99.90;;;;;;12464543;28;19925;-87
2022/09/20 17:26:03;;;;;;;;;;;12.50;99.90;;;;;;12459586;28;19955;-87
2022/09/20 17:32:05;;;;;;;;;;;12.40;99.90;;;;;;12462669;28;19929;-87
2022/09/20 17:38:07;;;;;;;;;;;12.10;99.90;;;;;;12456865;28;19979;-87
2022/09/20 17:44:08;;;;;;;;;;;12.20;99.90;;;;;;12465501;28;19926;-87
2022/09/20 17:50:13;;;;;;;;;;;12.10;99.90;;;;;;12460928;28;20480;-87
2022/09/20 17:56:15;;;;;;;;;;;12.10;99.90;;;;;;12473682;28;19932;-86
2022/09/20 18:02:17;;;;;;;;;;;11.80;99.90;;;;;;12464931;28;19926;-86
2022/09/20 18:08:18;;;;;;;;;;;11.70;99.90;;;;;;12483837;28;19940;-86
2022/09/20 18:14:22;;;;;;;;;;;11.60;99.90;;;;;;12480185;28;20031;-86
2022/09/20 18:20:23;;;;;;;;;;;11.50;99.90;;;;;;12463444;28;19992;-86
2022/09/20 18:26:26;;;;;;;;;;;11.20;99.90;;;;;;12468848;28;19952;-86
2022/09/20 18:32:29;;;;;;;;;;;11.10;99.90;;;;;;12470691;28;19926;-86
2022/09/20 18:38:32;;;;;;;;;;;11.00;99.90;;;;;;12465220;28;20300;-86
2022/09/20 18:44:34;;;;;;;;;;;10.80;99.90;;;;;;12467311;28;19936;-85
2022/09/20 18:50:35;;;;;;;;;;;10.70;99.90;;;;;;12466998;28;20404;-86
2022/09/20 18:56:38;;;;;;;;;;;10.80;99.90;;;;;;12466997;28;19925;-87
2022/09/20 19:02:40;;;;;;;;;;;10.70;99.90;;;;;;12468635;28;20385;-86
2022/09/20 19:08:46;;;;;;;;;;;10.70;99.90;;;;;;12483667;28;19932;-86
2022/09/20 19:15:06;;;;;;;;;;;10.60;99.90;;;;;;12470108;28;19932;-86
2022/09/20 19:21:07;;;;;;;;;;;10.80;99.90;;;;;;12463877;28;19936;-86
2022/09/20 19:27:10;;;;;;;;;;;10.70;99.90;;;;;;12475663;28;19925;-86
2022/09/20 19:33:15;;;;;;;;;;;10.70;99.90;;;;;;12472415;28;19925;-86
2022/09/20 19:39:16;;;;;;;;;;;10.60;99.90;;;;;;12456692;28;19925;-86
2022/09/20 19:45:18;;;;;;;;;;;10.40;99.90;;;;;;12467881;28;19925;-86
2022/09/20 19:51:21;;;;;;;;;;;10.40;99.90;;;;;;12473129;28;19956;-86
2022/09/20 19:57:27;;;;;;;;;;;10.40;99.90;;;;;;12459964;28;19925;-86
2022/09/20 20:03:28;;;;;;;;;;;10.50;99.90;;;;;;12457579;28;19925;-86
2022/09/20 20:09:36;;;;;;;;;;;10.20;99.90;;;;;;12479241;28;19933;-86
2022/09/20 20:15:43;;;;;;;;;;;10.10;99.90;;;;;;12465209;28;19926;-86
2022/09/20 20:22:08;;;;;;;;;;;10.00;99.90;;;;;;12456373;28;20106;-86
2022/09/20 20:28:09;;;;;;;;;;;10.10;99.90;;;;;;12440937;28;20267;-86
2022/09/20 20:34:15;;;;;;;;;;;10.20;99.90;;;;;;12469636;28;19925;-86
2022/09/20 20:40:17;;;;;;;;;;;10.10;99.90;;;;;;12462201;28;19925;-85
2022/09/20 20:46:19;;;;;;;;;;;10.10;99.90;;;;;;12471613;28;19925;-86
2022/09/20 20:52:20;;;;;;;;;;;10.00;99.90;;;;;;12465136;28;19933;-85
2022/09/20 20:58:22;;;;;;;;;;;9.90;99.90;;;;;;12463759;28;19941;-85
2022/09/20 21:04:26;;;;;;;;;;;9.80;99.90;;;;;;12459951;28;19933;-86
2022/09/20 21:10:27;;;;;;;;;;;9.50;99.90;;;;;;12464479;28;19925;-86
2022/09/20 21:16:30;;;;;;;;;;;9.60;99.90;;;;;;12469330;28;19941;-85
2022/09/20 21:22:32;;;;;;;;;;;9.80;99.90;;;;;;12455787;28;20005;-85
2022/09/20 21:28:35;;;;;;;;;;;9.90;99.90;;;;;;12461573;28;19925;-86
2022/09/20 21:34:37;;;;;;;;;;;10.00;99.90;;;;;;12460146;28;19933;-85
2022/09/20 21:40:40;;;;;;;;;;;9.60;99.90;;;;;;12454251;28;19926;-85
2022/09/20 21:46:42;;;;;;;;;;;9.60;99.90;;;;;;12475767;28;19925;-85
2022/09/20 21:52:45;;;;;;;;;;;9.60;99.90;;;;;;12449606;28;19925;-86
2022/09/20 21:58:47;;;;;;;;;;;9.70;99.90;;;;;;12457016;28;19929;-85
2022/09/20 22:04:49;;;;;;;;;;;9.60;99.90;;;;;;12443704;28;19926;-85
2022/09/20 22:10:54;;;;;;;;;;;9.40;99.90;;;;;;12407225;28;19933;-86
2022/09/20 22:16:58;;;;;;;;;;;9.30;99.90;;;;;;12426085;28;19925;-86
2022/09/20 22:23:00;;;;;;;;;;;9.20;99.90;;;;;;12401176;28;19936;-85
2022/09/20 22:29:02;;;;;;;;;;;9.30;99.90;;;;;;12409230;28;19936;-85
2022/09/20 22:35:04;;;;;;;;;;;9.40;99.90;;;;;;12407656;28;19937;-85
2022/09/20 22:41:06;;;;;;;;;;;9.30;99.90;;;;;;12416254;28;19937;-85
2022/09/20 22:47:07;;;;;;;;;;;9.30;99.90;;;;;;12409124;28;19926;-85
2022/09/20 22:53:09;;;;;;;;;;;9.30;99.90;;;;;;12409273;28;19926;-85
2022/09/20 22:59:12;;;;;;;;;;;9.20;99.90;;;;;;12395319;28;19934;-85
2022/09/20 23:05:15;;;;;;;;;;;9.10;99.90;;;;;;12424407;28;19932;-85
2022/09/20 23:11:17;;;;;;;;;;;9.10;99.90;;;;;;12469073;28;19925;-85
2022/09/20 23:17:19;;;;;;;;;;;9.20;99.90;;;;;;12469625;28;20398;-86
2022/09/20 23:23:22;;;;;;;;;;;9.20;99.90;;;;;;12469136;28;19929;-85
2022/09/20 23:29:25;;;;;;;;;;;9.10;99.90;;;;;;12473526;28;19925;-85
2022/09/20 23:35:26;;;;;;;;;;;9.30;99.90;;;;;;12463738;28;19929;-85
2022/09/20 23:41:28;;;;;;;;;;;9.10;99.90;;;;;;12457176;28;19978;-85
2022/09/20 23:47:30;;;;;;;;;;;9.00;99.90;;;;;;12477482;28;20300;-85
2022/09/20 23:53:32;;;;;;;;;;;9.10;99.90;;;;;;12458289;28;19949;-85
2022/09/20 23:59:33;;;;;;;;;;;9.10;99.90;;;;;;12465907;28;19926;-85
